sensor_id;sensor_type;location;lat;lon;timestamp;temperature;humidity
14359;DHT22;7263;49.418;11.064;2024-01-30T00:00:16;-1.60;99.90
14359;DHT22;7263;49.418;11.064;2024-01-30T00:02:43;-1.60;99.90
14359;DHT22;7263;49.418;11.064;2024-01-30T00:05:12;-1.50;99.90
14359;DHT22;7263;49.418;11.064;2024-01-30T00:07:42;-1.50;99.90
14359;DHT22;7263;49.418;11.064;2024-01-30T00:10:09;-1.60;99.90
14359;DHT22;7263;49.418;11.064;2024-01-30T00:12:38;-1.60;99.90
14359;DHT22;7263;49.418;11.064;2024-01-30T00:15:11;-1.60;99.90
14359;DHT22;7263;49.418;11.064;2024-01-30T00:17:38;-1.60;99.90
14359;DHT22;7263;49.418;11.064;2024-01-30T00:20:07;-1.60;99.90
14359;DHT22;7263;49.418;11.064;2024-01-30T00:22:36;-1.60;99.90
14359;DHT22;7263;49.418;11.064;2024-01-30T00:25:03;-1.60;99.90
14359;DHT22;7263;49.418;11.064;2024-01-30T00:27:36;-1.60;99.90
14359;DHT22;7263;49.418;11.064;2024-01-30T00:30:10;-1.60;99.90
14359;DHT22;7263;49.418;11.064;2024-01-30T00:32:37;-1.60;99.90
14359;DHT22;7263;49.418;11.064;2024-01-30T00:35:04;-1.70;99.90
14359;DHT22;7263;49.418;11.064;2024-01-30T00:37:38;-1.70;99.90
14359;DHT22;7263;49.418;11.064;2024-01-30T00:40:15;-1.70;99.90
14359;DHT22;7263;49.418;11.064;2024-01-30T00:42:44;-1.70;99.90
14359;DHT22;7263;49.418;11.064;2024-01-30T00:45:16;-1.70;99.90
14359;DHT22;7263;49.418;11.064;2024-01-30T00:47:44;-1.60;99.90
14359;DHT22;7263;49.418;11.064;2024-01-30T00:50:11;-2.70;99.90
14359;DHT22;7263;49.418;11.064;2024-01-30T00:52:44;-1.60;99.90
14359;DHT22;7263;49.418;11.064;2024-01-30T00:55:11;-1.50;99.90
14359;DHT22;7263;49.418;11.064;2024-01-30T00:57:38;-1.50;99.90
14359;DHT22;7263;49.418;11.064;2024-01-30T01:00:12;-1.50;99.90
14359;DHT22;7263;49.418;11.064;2024-01-30T01:02:45;-1.50;99.90
14359;DHT22;7263;49.418;11.064;2024-01-30T01:05:12;-1.40;99.90
14359;DHT22;7263;49.418;11.064;2024-01-30T01:07:38;-1.40;99.90
14359;DHT22;7263;49.418;11.064;2024-01-30T01:10:10;-1.30;99.90
14359;DHT22;7263;49.418;11.064;2024-01-30T01:12:39;-1.30;99.90
14359;DHT22;7263;49.418;11.064;2024-01-30T01:15:09;-1.30;99.90
14359;DHT22;7263;49.418;11.064;2024-01-30T01:17:42;-1.40;99.90
14359;DHT22;7263;49.418;11.064;2024-01-30T01:20:11;-1.40;99.90
14359;DHT22;7263;49.418;11.064;2024-01-30T01:22:38;-1.50;99.90
14359;DHT22;7263;49.418;11.064;2024-01-30T01:25:06;-1.30;99.90
14359;DHT22;7263;49.418;11.064;2024-01-30T01:27:37;-1.20;99.90
14359;DHT22;7263;49.418;11.064;2024-01-30T01:30:11;-1.10;99.90
14359;DHT22;7263;49.418;11.064;2024-01-30T01:32:44;-1.00;99.90
14359;DHT22;7263;49.418;11.064;2024-01-30T01:35:16;-1.00;99.90
14359;DHT22;7263;49.418;11.064;2024-01-30T01:38:02;-0.90;99.90
14359;DHT22;7263;49.418;11.064;2024-01-30T01:40:32;-0.90;99.90
14359;DHT22;7263;49.418;11.064;2024-01-30T01:43:10;-0.80;99.90
14359;DHT22;7263;49.418;11.064;2024-01-30T01:45:40;-0.60;99.90
14359;DHT22;7263;49.418;11.064;2024-01-30T01:48:07;-0.40;99.90
14359;DHT22;7263;49.418;11.064;2024-01-30T01:50:35;-0.30;99.90
14359;DHT22;7263;49.418;11.064;2024-01-30T01:53:12;-0.20;99.90
14359;DHT22;7263;49.418;11.064;2024-01-30T01:55:39;-0.30;99.90
14359;DHT22;7263;49.418;11.064;2024-01-30T01:58:13;-0.20;99.90
14359;DHT22;7263;49.418;11.064;2024-01-30T02:00:40;-0.20;99.90
14359;DHT22;7263;49.418;11.064;2024-01-30T02:03:10;-0.20;99.90
14359;DHT22;7263;49.418;11.064;2024-01-30T02:05:37;-0.10;99.90
14359;DHT22;7263;49.418;11.064;2024-01-30T02:08:05;0.00;99.90
14359;DHT22;7263;49.418;11.064;2024-01-30T02:10:32;0.00;99.90
14359;DHT22;7263;49.418;11.064;2024-01-30T02:12:59;0.00;99.90
14359;DHT22;7263;49.418;11.064;2024-01-30T02:15:37;0.10;99.90
14359;DHT22;7263;49.418;11.064;2024-01-30T02:18:06;0.10;99.90
14359;DHT22;7263;49.418;11.064;2024-01-30T02:20:37;0.10;99.90
14359;DHT22;7263;49.418;11.064;2024-01-30T02:23:09;0.00;99.90
14359;DHT22;7263;49.418;11.064;2024-01-30T02:25:38;-0.10;99.90
14359;DHT22;7263;49.418;11.064;2024-01-30T02:28:09;-0.10;99.90
14359;DHT22;7263;49.418;11.064;2024-01-30T02:30:39;-0.30;99.90
14359;DHT22;7263;49.418;11.064;2024-01-30T02:33:06;-0.30;99.90
14359;DHT22;7263;49.418;11.064;2024-01-30T02:35:36;-0.40;99.90
14359;DHT22;7263;49.418;11.064;2024-01-30T02:38:03;-0.50;99.90
14359;DHT22;7263;49.418;11.064;2024-01-30T02:40:31;-0.50;99.90
14359;DHT22;7263;49.418;11.064;2024-01-30T02:43:02;-0.60;99.90
14359;DHT22;7263;49.418;11.064;2024-01-30T02:45:32;-0.60;99.90
14359;DHT22;7263;49.418;11.064;2024-01-30T02:47:59;-0.70;99.90
14359;DHT22;7263;49.418;11.064;2024-01-30T02:50:25;-0.80;99.90
14359;DHT22;7263;49.418;11.064;2024-01-30T02:52:52;-0.90;99.90
14359;DHT22;7263;49.418;11.064;2024-01-30T02:55:22;-0.90;99.90
14359;DHT22;7263;49.418;11.064;2024-01-30T02:58:00;-0.90;99.90
14359;DHT22;7263;49.418;11.064;2024-01-30T03:00:28;-1.00;99.90
14359;DHT22;7263;49.418;11.064;2024-01-30T03:02:58;-1.00;99.90
14359;DHT22;7263;49.418;11.064;2024-01-30T03:05:27;-0.90;99.90
14359;DHT22;7263;49.418;11.064;2024-01-30T03:07:59;-0.90;99.90
14359;DHT22;7263;49.418;11.064;2024-01-30T03:10:26;-1.00;99.90
14359;DHT22;7263;49.418;11.064;2024-01-30T03:12:55;-1.00;99.90
14359;DHT22;7263;49.418;11.064;2024-01-30T03:15:28;-1.00;99.90
14359;DHT22;7263;49.418;11.064;2024-01-30T03:17:58;-1.10;99.90
14359;DHT22;7263;49.418;11.064;2024-01-30T03:20:30;-1.10;99.90
14359;DHT22;7263;49.418;11.064;2024-01-30T03:23:00;-1.10;99.90
14359;DHT22;7263;49.418;11.064;2024-01-30T03:25:28;-1.20;99.90
14359;DHT22;7263;49.418;11.064;2024-01-30T03:28:00;-1.30;99.90
14359;DHT22;7263;49.418;11.064;2024-01-30T03:30:28;-1.30;99.90
14359;DHT22;7263;49.418;11.064;2024-01-30T03:32:59;-1.30;99.90
14359;DHT22;7263;49.418;11.064;2024-01-30T03:35:26;-1.40;99.90
14359;DHT22;7263;49.418;11.064;2024-01-30T03:37:53;-1.40;99.90
14359;DHT22;7263;49.418;11.064;2024-01-30T03:40:25;-1.40;99.90
14359;DHT22;7263;49.418;11.064;2024-01-30T03:42:54;-1.40;99.90
14359;DHT22;7263;49.418;11.064;2024-01-30T03:45:23;-1.40;99.90
14359;DHT22;7263;49.418;11.064;2024-01-30T03:47:51;-1.50;99.90
14359;DHT22;7263;49.418;11.064;2024-01-30T03:50:18;-1.50;99.90
14359;DHT22;7263;49.418;11.064;2024-01-30T03:52:45;-1.40;99.90
14359;DHT22;7263;49.418;11.064;2024-01-30T03:55:14;-1.50;99.90
14359;DHT22;7263;49.418;11.064;2024-01-30T03:57:41;-1.50;99.90
14359;DHT22;7263;49.418;11.064;2024-01-30T04:00:09;-1.50;99.90
14359;DHT22;7263;49.418;11.064;2024-01-30T04:02:36;-1.50;99.90
14359;DHT22;7263;49.418;11.064;2024-01-30T04:05:04;-1.50;99.90
14359;DHT22;7263;49.418;11.064;2024-01-30T04:07:32;-1.50;99.90
14359;DHT22;7263;49.418;11.064;2024-01-30T04:10:01;-1.50;99.90
14359;DHT22;7263;49.418;11.064;2024-01-30T04:12:30;-1.40;99.90
14359;DHT22;7263;49.418;11.064;2024-01-30T04:15:03;-1.40;99.90
14359;DHT22;7263;49.418;11.064;2024-01-30T04:17:32;-1.40;99.90
14359;DHT22;7263;49.418;11.064;2024-01-30T04:19:59;-1.40;99.90
14359;DHT22;7263;49.418;11.064;2024-01-30T04:22:27;-1.40;99.90
14359;DHT22;7263;49.418;11.064;2024-01-30T04:24:54;-1.40;99.90
14359;DHT22;7263;49.418;11.064;2024-01-30T04:27:22;-1.40;99.90
14359;DHT22;7263;49.418;11.064;2024-01-30T04:29:51;-1.40;99.90
14359;DHT22;7263;49.418;11.064;2024-01-30T04:32:18;-1.20;99.90
14359;DHT22;7263;49.418;11.064;2024-01-30T04:34:45;-1.10;99.90
14359;DHT22;7263;49.418;11.064;2024-01-30T04:37:14;-1.10;99.90
14359;DHT22;7263;49.418;11.064;2024-01-30T04:39:43;-1.00;99.90
14359;DHT22;7263;49.418;11.064;2024-01-30T04:42:12;-0.90;99.90
14359;DHT22;7263;49.418;11.064;2024-01-30T04:44:44;-0.80;99.90
14359;DHT22;7263;49.418;11.064;2024-01-30T04:47:11;-0.70;99.90
14359;DHT22;7263;49.418;11.064;2024-01-30T04:49:38;-0.60;99.90
14359;DHT22;7263;49.418;11.064;2024-01-30T04:52:09;-0.50;99.90
14359;DHT22;7263;49.418;11.064;2024-01-30T04:54:38;-0.50;99.90
14359;DHT22;7263;49.418;11.064;2024-01-30T04:57:07;-0.50;99.90
14359;DHT22;7263;49.418;11.064;2024-01-30T04:59:43;-0.50;99.90
14359;DHT22;7263;49.418;11.064;2024-01-30T05:02:12;-0.30;99.90
14359;DHT22;7263;49.418;11.064;2024-01-30T05:04:39;-0.50;99.90
14359;DHT22;7263;49.418;11.064;2024-01-30T05:07:07;-0.50;99.90
14359;DHT22;7263;49.418;11.064;2024-01-30T05:09:41;-0.40;99.90
14359;DHT22;7263;49.418;11.064;2024-01-30T05:12:09;-0.30;99.90
14359;DHT22;7263;49.418;11.064;2024-01-30T05:14:36;-0.30;99.90
14359;DHT22;7263;49.418;11.064;2024-01-30T05:17:04;-0.30;99.90
14359;DHT22;7263;49.418;11.064;2024-01-30T05:19:38;-0.30;99.90
14359;DHT22;7263;49.418;11.064;2024-01-30T05:22:05;-0.30;99.90
14359;DHT22;7263;49.418;11.064;2024-01-30T05:24:32;-0.30;99.90
14359;DHT22;7263;49.418;11.064;2024-01-30T05:27:02;-0.30;99.90
14359;DHT22;7263;49.418;11.064;2024-01-30T05:29:30;-0.30;99.90
14359;DHT22;7263;49.418;11.064;2024-01-30T05:31:58;-0.30;99.90
14359;DHT22;7263;49.418;11.064;2024-01-30T05:34:24;-0.30;99.90
14359;DHT22;7263;49.418;11.064;2024-01-30T05:36:54;-0.30;99.90
14359;DHT22;7263;49.418;11.064;2024-01-30T05:39:20;-0.30;99.90
14359;DHT22;7263;49.418;11.064;2024-01-30T05:41:47;-0.30;99.90
14359;DHT22;7263;49.418;11.064;2024-01-30T05:44:14;-0.30;99.90
14359;DHT22;7263;49.418;11.064;2024-01-30T05:46:42;-0.30;99.90
14359;DHT22;7263;49.418;11.064;2024-01-30T05:49:09;-0.30;99.90
14359;DHT22;7263;49.418;11.064;2024-01-30T05:51:35;-0.20;99.90
14359;DHT22;7263;49.418;11.064;2024-01-30T05:54:02;-0.10;99.90
14359;DHT22;7263;49.418;11.064;2024-01-30T05:56:32;-0.10;99.90
14359;DHT22;7263;49.418;11.064;2024-01-30T05:58:59;-0.10;99.90
14359;DHT22;7263;49.418;11.064;2024-01-30T06:01:29;-0.10;99.90
14359;DHT22;7263;49.418;11.064;2024-01-30T06:04:00;-0.10;99.90
14359;DHT22;7263;49.418;11.064;2024-01-30T06:06:30;-0.10;99.90
14359;DHT22;7263;49.418;11.064;2024-01-30T06:08:57;-0.10;99.90
14359;DHT22;7263;49.418;11.064;2024-01-30T06:11:27;-0.10;99.90
14359;DHT22;7263;49.418;11.064;2024-01-30T06:13:56;0.00;99.90
14359;DHT22;7263;49.418;11.064;2024-01-30T06:16:26;0.00;99.90
14359;DHT22;7263;49.418;11.064;2024-01-30T06:18:55;0.00;99.90
14359;DHT22;7263;49.418;11.064;2024-01-30T06:21:33;0.00;99.90
14359;DHT22;7263;49.418;11.064;2024-01-30T06:24:04;0.00;99.90
14359;DHT22;7263;49.418;11.064;2024-01-30T06:26:33;0.00;99.90
14359;DHT22;7263;49.418;11.064;2024-01-30T06:29:00;0.10;99.90
14359;DHT22;7263;49.418;11.064;2024-01-30T06:31:33;0.10;99.90
14359;DHT22;7263;49.418;11.064;2024-01-30T06:34:02;0.10;99.90
14359;DHT22;7263;49.418;11.064;2024-01-30T06:36:30;0.20;99.90
14359;DHT22;7263;49.418;11.064;2024-01-30T06:39:04;0.20;99.90
14359;DHT22;7263;49.418;11.064;2024-01-30T06:41:31;0.20;99.90
14359;DHT22;7263;49.418;11.064;2024-01-30T06:44:04;0.20;99.90
14359;DHT22;7263;49.418;11.064;2024-01-30T06:46:33;0.30;99.90
14359;DHT22;7263;49.418;11.064;2024-01-30T06:49:00;0.30;99.90
14359;DHT22;7263;49.418;11.064;2024-01-30T06:51:27;0.30;99.90
14359;DHT22;7263;49.418;11.064;2024-01-30T06:54:01;0.30;99.90
14359;DHT22;7263;49.418;11.064;2024-01-30T06:56:30;0.20;99.90
14359;DHT22;7263;49.418;11.064;2024-01-30T06:59:00;0.30;99.90
14359;DHT22;7263;49.418;11.064;2024-01-30T07:01:34;0.20;99.90
14359;DHT22;7263;49.418;11.064;2024-01-30T07:04:02;0.30;99.90
14359;DHT22;7263;49.418;11.064;2024-01-30T07:06:31;0.30;99.90
14359;DHT22;7263;49.418;11.064;2024-01-30T07:08:58;0.30;99.90
14359;DHT22;7263;49.418;11.064;2024-01-30T07:11:29;0.30;99.90
14359;DHT22;7263;49.418;11.064;2024-01-30T07:14:04;0.40;99.90
14359;DHT22;7263;49.418;11.064;2024-01-30T07:16:34;0.50;99.90
14359;DHT22;7263;49.418;11.064;2024-01-30T07:19:00;0.50;99.90
14359;DHT22;7263;49.418;11.064;2024-01-30T07:21:27;-1.50;99.90
14359;DHT22;7263;49.418;11.064;2024-01-30T07:24:00;0.60;99.90
14359;DHT22;7263;49.418;11.064;2024-01-30T07:26:28;0.70;99.90
14359;DHT22;7263;49.418;11.064;2024-01-30T07:29:00;1.50;99.90
14359;DHT22;7263;49.418;11.064;2024-01-30T07:31:30;0.90;99.90
14359;DHT22;7263;49.418;11.064;2024-01-30T07:33:57;1.00;99.90
14359;DHT22;7263;49.418;11.064;2024-01-30T07:36:27;1.00;99.90
14359;DHT22;7263;49.418;11.064;2024-01-30T07:38:53;1.10;99.90
14359;DHT22;7263;49.418;11.064;2024-01-30T07:41:20;1.40;99.90
14359;DHT22;7263;49.418;11.064;2024-01-30T07:43:49;1.50;99.90
14359;DHT22;7263;49.418;11.064;2024-01-30T07:46:22;1.70;99.90
14359;DHT22;7263;49.418;11.064;2024-01-30T07:48:54;1.90;99.90
14359;DHT22;7263;49.418;11.064;2024-01-30T07:51:24;2.00;99.90
14359;DHT22;7263;49.418;11.064;2024-01-30T07:53:51;2.20;99.90
14359;DHT22;7263;49.418;11.064;2024-01-30T07:56:20;2.30;99.90
14359;DHT22;7263;49.418;11.064;2024-01-30T07:58:51;2.40;99.90
14359;DHT22;7263;49.418;11.064;2024-01-30T08:01:25;2.50;99.90
14359;DHT22;7263;49.418;11.064;2024-01-30T08:03:55;2.50;99.90
14359;DHT22;7263;49.418;11.064;2024-01-30T08:06:25;2.50;99.90
14359;DHT22;7263;49.418;11.064;2024-01-30T08:08:51;2.50;99.90
14359;DHT22;7263;49.418;11.064;2024-01-30T08:11:20;2.60;99.90
14359;DHT22;7263;49.418;11.064;2024-01-30T08:13:52;2.70;99.90
14359;DHT22;7263;49.418;11.064;2024-01-30T08:16:19;2.70;99.90
14359;DHT22;7263;49.418;11.064;2024-01-30T08:18:52;2.70;99.90
14359;DHT22;7263;49.418;11.064;2024-01-30T08:21:21;2.70;99.90
14359;DHT22;7263;49.418;11.064;2024-01-30T08:23:54;2.60;99.90
14359;DHT22;7263;49.418;11.064;2024-01-30T08:26:21;2.60;99.90
14359;DHT22;7263;49.418;11.064;2024-01-30T08:28:53;2.50;99.90
14359;DHT22;7263;49.418;11.064;2024-01-30T08:31:24;2.50;99.90
14359;DHT22;7263;49.418;11.064;2024-01-30T08:33:51;4.90;99.90
14359;DHT22;7263;49.418;11.064;2024-01-30T08:36:18;2.70;99.90
14359;DHT22;7263;49.418;11.064;2024-01-30T08:38:44;2.80;99.90
14359;DHT22;7263;49.418;11.064;2024-01-30T08:41:14;2.90;99.90
14359;DHT22;7263;49.418;11.064;2024-01-30T08:43:41;2.90;99.90
14359;DHT22;7263;49.418;11.064;2024-01-30T08:46:08;3.00;99.90
14359;DHT22;7263;49.418;11.064;2024-01-30T08:48:46;3.00;99.90
14359;DHT22;7263;49.418;11.064;2024-01-30T08:51:26;3.10;99.90
14359;DHT22;7263;49.418;11.064;2024-01-30T08:53:53;3.10;99.90
14359;DHT22;7263;49.418;11.064;2024-01-30T08:56:22;3.20;99.90
14359;DHT22;7263;49.418;11.064;2024-01-30T08:59:01;3.30;99.90
14359;DHT22;7263;49.418;11.064;2024-01-30T09:01:31;3.40;99.90
14359;DHT22;7263;49.418;11.064;2024-01-30T09:04:01;3.40;99.90
14359;DHT22;7263;49.418;11.064;2024-01-30T09:06:28;3.50;99.90
14359;DHT22;7263;49.418;11.064;2024-01-30T09:09:02;3.60;99.90
14359;DHT22;7263;49.418;11.064;2024-01-30T09:11:30;3.80;99.90
14359;DHT22;7263;49.418;11.064;2024-01-30T09:13:58;3.90;99.90
14359;DHT22;7263;49.418;11.064;2024-01-30T09:16:28;4.00;99.90
14359;DHT22;7263;49.418;11.064;2024-01-30T09:18:58;4.10;99.90
14359;DHT22;7263;49.418;11.064;2024-01-30T09:21:29;4.20;99.90
14359;DHT22;7263;49.418;11.064;2024-01-30T09:24:03;4.50;99.90
14359;DHT22;7263;49.418;11.064;2024-01-30T09:26:33;4.80;99.90
14359;DHT22;7263;49.418;11.064;2024-01-30T09:28:59;5.20;99.90
14359;DHT22;7263;49.418;11.064;2024-01-30T09:31:30;5.50;99.90
14359;DHT22;7263;49.418;11.064;2024-01-30T09:33:56;5.60;99.90
14359;DHT22;7263;49.418;11.064;2024-01-30T09:36:23;5.70;99.90
14359;DHT22;7263;49.418;11.064;2024-01-30T09:38:55;5.80;99.90
14359;DHT22;7263;49.418;11.064;2024-01-30T09:41:24;6.00;99.90
14359;DHT22;7263;49.418;11.064;2024-01-30T09:43:51;6.40;99.90
14359;DHT22;7263;49.418;11.064;2024-01-30T09:46:27;6.80;99.90
14359;DHT22;7263;49.418;11.064;2024-01-30T09:48:55;7.10;99.90
14359;DHT22;7263;49.418;11.064;2024-01-30T09:51:25;7.10;99.90
14359;DHT22;7263;49.418;11.064;2024-01-30T09:53:58;7.10;99.90
14359;DHT22;7263;49.418;11.064;2024-01-30T09:56:27;7.10;99.90
14359;DHT22;7263;49.418;11.064;2024-01-30T09:58:56;7.10;99.90
14359;DHT22;7263;49.418;11.064;2024-01-30T10:01:26;6.90;99.90
14359;DHT22;7263;49.418;11.064;2024-01-30T10:03:53;6.70;99.90
14359;DHT22;7263;49.418;11.064;2024-01-30T10:06:26;6.50;99.90
14359;DHT22;7263;49.418;11.064;2024-01-30T10:08:54;6.50;99.90
14359;DHT22;7263;49.418;11.064;2024-01-30T10:11:24;6.60;99.90
14359;DHT22;7263;49.418;11.064;2024-01-30T10:13:50;6.70;99.90
14359;DHT22;7263;49.418;11.064;2024-01-30T10:16:20;6.70;99.90
14359;DHT22;7263;49.418;11.064;2024-01-30T10:18:46;6.60;99.90
14359;DHT22;7263;49.418;11.064;2024-01-30T10:21:17;6.70;99.90
14359;DHT22;7263;49.418;11.064;2024-01-30T10:23:47;6.80;99.90
14359;DHT22;7263;49.418;11.064;2024-01-30T10:26:18;6.90;99.90
14359;DHT22;7263;49.418;11.064;2024-01-30T10:28:48;7.10;99.90
14359;DHT22;7263;49.418;11.064;2024-01-30T10:31:16;7.20;99.90
14359;DHT22;7263;49.418;11.064;2024-01-30T10:33:51;7.10;99.90
14359;DHT22;7263;49.418;11.064;2024-01-30T10:36:29;7.00;99.90
14359;DHT22;7263;49.418;11.064;2024-01-30T10:39:00;7.10;99.90
14359;DHT22;7263;49.418;11.064;2024-01-30T10:41:35;7.20;99.90
14359;DHT22;7263;49.418;11.064;2024-01-30T10:44:12;7.30;99.90
14359;DHT22;7263;49.418;11.064;2024-01-30T10:46:42;7.30;99.90
14359;DHT22;7263;49.418;11.064;2024-01-30T10:49:12;7.40;99.90
14359;DHT22;7263;49.418;11.064;2024-01-30T10:51:41;7.30;99.90
14359;DHT22;7263;49.418;11.064;2024-01-30T10:54:13;7.30;99.90
14359;DHT22;7263;49.418;11.064;2024-01-30T10:56:46;7.40;99.90
14359;DHT22;7263;49.418;11.064;2024-01-30T10:59:14;7.40;99.90
14359;DHT22;7263;49.418;11.064;2024-01-30T11:01:44;7.50;99.90
14359;DHT22;7263;49.418;11.064;2024-01-30T11:04:11;7.50;99.90
14359;DHT22;7263;49.418;11.064;2024-01-30T11:06:41;7.50;99.90
14359;DHT22;7263;49.418;11.064;2024-01-30T11:09:11;7.60;99.90
14359;DHT22;7263;49.418;11.064;2024-01-30T11:11:56;7.70;99.90
14359;DHT22;7263;49.418;11.064;2024-01-30T11:14:25;7.90;99.90
14359;DHT22;7263;49.418;11.064;2024-01-30T11:16:52;8.00;99.90
14359;DHT22;7263;49.418;11.064;2024-01-30T11:19:23;8.00;99.90
14359;DHT22;7263;49.418;11.064;2024-01-30T11:21:51;8.10;99.90
14359;DHT22;7263;49.418;11.064;2024-01-30T11:24:23;8.20;99.90
14359;DHT22;7263;49.418;11.064;2024-01-30T11:26:59;8.20;99.90
14359;DHT22;7263;49.418;11.064;2024-01-30T11:29:27;8.20;99.90
14359;DHT22;7263;49.418;11.064;2024-01-30T11:31:54;8.20;99.90
14359;DHT22;7263;49.418;11.064;2024-01-30T11:34:21;8.20;99.90
14359;DHT22;7263;49.418;11.064;2024-01-30T11:36:53;8.30;99.90
14359;DHT22;7263;49.418;11.064;2024-01-30T11:39:30;8.40;99.90
14359;DHT22;7263;49.418;11.064;2024-01-30T11:41:59;8.50;99.90
14359;DHT22;7263;49.418;11.064;2024-01-30T11:44:26;8.70;99.90
14359;DHT22;7263;49.418;11.064;2024-01-30T11:46:53;8.90;99.90
14359;DHT22;7263;49.418;11.064;2024-01-30T11:49:20;8.90;99.90
14359;DHT22;7263;49.418;11.064;2024-01-30T11:51:52;8.80;99.90
14359;DHT22;7263;49.418;11.064;2024-01-30T11:54:22;8.80;99.90
14359;DHT22;7263;49.418;11.064;2024-01-30T11:56:49;8.90;99.90
14359;DHT22;7263;49.418;11.064;2024-01-30T11:59:26;9.00;99.90
14359;DHT22;7263;49.418;11.064;2024-01-30T12:02:01;9.00;99.90
14359;DHT22;7263;49.418;11.064;2024-01-30T12:04:28;8.90;99.90
14359;DHT22;7263;49.418;11.064;2024-01-30T12:06:59;8.90;99.90
14359;DHT22;7263;49.418;11.064;2024-01-30T12:09:35;9.00;99.90
14359;DHT22;7263;49.418;11.064;2024-01-30T12:12:02;9.00;99.90
14359;DHT22;7263;49.418;11.064;2024-01-30T12:14:35;9.00;99.90
14359;DHT22;7263;49.418;11.064;2024-01-30T12:17:02;9.20;99.90
14359;DHT22;7263;49.418;11.064;2024-01-30T12:19:31;9.30;99.90
14359;DHT22;7263;49.418;11.064;2024-01-30T12:21:58;9.40;99.90
14359;DHT22;7263;49.418;11.064;2024-01-30T12:24:25;9.50;99.90
14359;DHT22;7263;49.418;11.064;2024-01-30T12:26:52;9.50;99.90
14359;DHT22;7263;49.418;11.064;2024-01-30T12:29:20;9.50;99.90
14359;DHT22;7263;49.418;11.064;2024-01-30T12:31:52;9.50;99.90
14359;DHT22;7263;49.418;11.064;2024-01-30T12:34:39;9.50;99.90
14359;DHT22;7263;49.418;11.064;2024-01-30T12:37:06;9.60;99.90
14359;DHT22;7263;49.418;11.064;2024-01-30T12:39:43;9.60;99.90
14359;DHT22;7263;49.418;11.064;2024-01-30T12:42:16;9.60;99.90
14359;DHT22;7263;49.418;11.064;2024-01-30T12:44:43;9.60;99.90
14359;DHT22;7263;49.418;11.064;2024-01-30T12:47:11;9.50;99.90
14359;DHT22;7263;49.418;11.064;2024-01-30T12:49:56;9.40;99.90
14359;DHT22;7263;49.418;11.064;2024-01-30T12:52:26;9.40;99.90
14359;DHT22;7263;49.418;11.064;2024-01-30T12:54:55;9.40;99.90
14359;DHT22;7263;49.418;11.064;2024-01-30T12:57:22;9.50;99.90
14359;DHT22;7263;49.418;11.064;2024-01-30T12:59:49;9.50;99.90
14359;DHT22;7263;49.418;11.064;2024-01-30T13:02:17;9.60;99.90
14359;DHT22;7263;49.418;11.064;2024-01-30T13:04:44;9.70;99.90
14359;DHT22;7263;49.418;11.064;2024-01-30T13:07:11;9.60;99.90
14359;DHT22;7263;49.418;11.064;2024-01-30T13:09:41;9.60;99.90
14359;DHT22;7263;49.418;11.064;2024-01-30T13:12:07;9.70;99.90
14359;DHT22;7263;49.418;11.064;2024-01-30T13:14:36;9.70;99.90
14359;DHT22;7263;49.418;11.064;2024-01-30T13:17:05;9.80;99.90
14359;DHT22;7263;49.418;11.064;2024-01-30T13:19:36;9.80;99.90
14359;DHT22;7263;49.418;11.064;2024-01-30T13:22:06;9.80;99.90
14359;DHT22;7263;49.418;11.064;2024-01-30T13:24:35;9.80;99.90
14359;DHT22;7263;49.418;11.064;2024-01-30T13:27:02;9.80;99.90
14359;DHT22;7263;49.418;11.064;2024-01-30T13:29:34;9.70;99.90
14359;DHT22;7263;49.418;11.064;2024-01-30T13:32:03;9.70;99.90
14359;DHT22;7263;49.418;11.064;2024-01-30T13:34:31;9.70;99.90
14359;DHT22;7263;49.418;11.064;2024-01-30T13:36:59;9.70;99.90
14359;DHT22;7263;49.418;11.064;2024-01-30T13:39:26;9.60;99.90
14359;DHT22;7263;49.418;11.064;2024-01-30T13:41:56;9.60;99.90
14359;DHT22;7263;49.418;11.064;2024-01-30T13:44:25;9.60;99.90
14359;DHT22;7263;49.418;11.064;2024-01-30T13:46:51;9.60;99.90
14359;DHT22;7263;49.418;11.064;2024-01-30T13:49:20;9.50;99.90
14359;DHT22;7263;49.418;11.064;2024-01-30T13:51:50;9.50;99.90
14359;DHT22;7263;49.418;11.064;2024-01-30T13:54:32;9.50;99.90
14359;DHT22;7263;49.418;11.064;2024-01-30T13:57:06;9.50;99.90
14359;DHT22;7263;49.418;11.064;2024-01-30T13:59:37;9.50;99.90
14359;DHT22;7263;49.418;11.064;2024-01-30T14:02:04;9.50;99.90
14359;DHT22;7263;49.418;11.064;2024-01-30T14:04:33;9.50;99.90
14359;DHT22;7263;49.418;11.064;2024-01-30T14:07:02;9.50;99.90
14359;DHT22;7263;49.418;11.064;2024-01-30T14:09:30;9.50;99.90
14359;DHT22;7263;49.418;11.064;2024-01-30T14:12:05;9.50;99.90
14359;DHT22;7263;49.418;11.064;2024-01-30T14:14:38;9.50;99.90
14359;DHT22;7263;49.418;11.064;2024-01-30T14:17:10;9.50;99.90
14359;DHT22;7263;49.418;11.064;2024-01-30T14:19:39;9.50;99.90
14359;DHT22;7263;49.418;11.064;2024-01-30T14:22:06;9.50;99.90
14359;DHT22;7263;49.418;11.064;2024-01-30T14:24:37;9.40;99.90
14359;DHT22;7263;49.418;11.064;2024-01-30T14:27:07;9.40;99.90
14359;DHT22;7263;49.418;11.064;2024-01-30T14:29:34;9.40;99.90
14359;DHT22;7263;49.418;11.064;2024-01-30T14:32:01;9.40;99.90
14359;DHT22;7263;49.418;11.064;2024-01-30T14:34:35;9.30;99.90
14359;DHT22;7263;49.418;11.064;2024-01-30T14:37:09;9.30;99.90
14359;DHT22;7263;49.418;11.064;2024-01-30T14:39:46;9.30;99.90
14359;DHT22;7263;49.418;11.064;2024-01-30T14:42:13;9.20;99.90
14359;DHT22;7263;49.418;11.064;2024-01-30T14:44:45;9.20;99.90
14359;DHT22;7263;49.418;11.064;2024-01-30T14:47:12;9.20;99.90
14359;DHT22;7263;49.418;11.064;2024-01-30T14:49:40;9.10;99.90
14359;DHT22;7263;49.418;11.064;2024-01-30T14:52:14;9.10;99.90
14359;DHT22;7263;49.418;11.064;2024-01-30T14:54:47;9.10;99.90
14359;DHT22;7263;49.418;11.064;2024-01-30T14:57:14;9.10;99.90
14359;DHT22;7263;49.418;11.064;2024-01-30T14:59:44;9.10;99.90
14359;DHT22;7263;49.418;11.064;2024-01-30T15:02:11;9.10;99.90
14359;DHT22;7263;49.418;11.064;2024-01-30T15:04:40;9.10;99.90
14359;DHT22;7263;49.418;11.064;2024-01-30T15:07:07;9.10;99.90
14359;DHT22;7263;49.418;11.064;2024-01-30T15:09:44;9.00;99.90
14359;DHT22;7263;49.418;11.064;2024-01-30T15:12:19;9.00;99.90
14359;DHT22;7263;49.418;11.064;2024-01-30T15:14:46;8.90;99.90
14359;DHT22;7263;49.418;11.064;2024-01-30T15:17:16;8.90;99.90
14359;DHT22;7263;49.418;11.064;2024-01-30T15:19:46;8.90;99.90
14359;DHT22;7263;49.418;11.064;2024-01-30T15:22:28;8.80;99.90
14359;DHT22;7263;49.418;11.064;2024-01-30T15:24:56;8.80;99.90
14359;DHT22;7263;49.418;11.064;2024-01-30T15:27:25;8.80;99.90
14359;DHT22;7263;49.418;11.064;2024-01-30T15:29:52;8.80;99.90
14359;DHT22;7263;49.418;11.064;2024-01-30T15:32:23;8.70;99.90
14359;DHT22;7263;49.418;11.064;2024-01-30T15:34:50;8.60;99.90
14359;DHT22;7263;49.418;11.064;2024-01-30T15:37:17;8.50;99.90
14359;DHT22;7263;49.418;11.064;2024-01-30T15:39:47;8.50;99.90
14359;DHT22;7263;49.418;11.064;2024-01-30T15:42:23;8.50;99.90
14359;DHT22;7263;49.418;11.064;2024-01-30T15:44:50;10.50;99.90
14359;DHT22;7263;49.418;11.064;2024-01-30T15:47:17;8.40;99.90
14359;DHT22;7263;49.418;11.064;2024-01-30T15:49:43;8.40;99.90
14359;DHT22;7263;49.418;11.064;2024-01-30T15:52:11;8.30;99.90
14359;DHT22;7263;49.418;11.064;2024-01-30T15:54:39;8.20;99.90